This is the latest recevied weather packets stored in our database for station/object XE2CT-20. If no packets are shown the sender has not sent any weather packets the latest 10 day(s).
| Time | Temp. | Humidity | Pressure | Rain* | Wind** | Luminosity | Snow |
|---|---|---|---|---|---|---|---|
| 1778095884 | 35° C | 45% | 1003 hPa | - | - | - | - |
| 1778094983 | 35° C | 45% | 1003 hPa | - | - | - | - |
| 1778094082 | 34.44° C | 45% | 1003 hPa | - | - | - | - |
| 1778093181 | 33.33° C | 49% | 1005 hPa | - | - | - | - |
| 1778092280 | 32.78° C | 50% | 1005 hPa | - | - | - | - |
| 1778091379 | 32.78° C | 52% | 1006 hPa | - | - | - | - |
| 1778090478 | 31.67° C | 54% | 1007 hPa | - | - | - | - |
| 1778089577 | 31.67° C | 56% | 1008 hPa | - | - | - | - |
| 1778088676 | 31.11° C | 57% | 1009 hPa | - | - | - | - |
| 1778087775 | 31.11° C | 58% | 1009 hPa | - | - | - | - |
| 1778086874 | 30.56° C | 59% | 1010 hPa | - | - | - | - |
| 1778085973 | 30° C | 60% | 1011 hPa | - | - | - | - |
| 1778085072 | 30.56° C | 59% | 1010 hPa | - | - | - | - |
| 1778084171 | 30° C | 60% | 1011 hPa | - | - | - | - |
| 1778083270 | 29.44° C | 62% | 1012 hPa | - | - | - | - |
| 1778082369 | 28.33° C | 66% | 1014 hPa | - | - | - | - |
| 1778081468 | 28.33° C | 67% | 1014 hPa | - | - | - | - |
| 1778080567 | 28.89° C | 64% | 1013 hPa | - | - | - | - |
| 1778079665 | 28.33° C | 67% | 1014 hPa | - | - | - | - |
| 1778078764 | 28.33° C | 67% | 1013 hPa | - | - | - | - |
| 1778077863 | 28.33° C | 66% | 1013 hPa | - | - | - | - |
| 1778076962 | 27.22° C | 71% | 1015 hPa | - | - | - | - |
| 1778076061 | 27.78° C | 68% | 1013 hPa | - | - | - | - |
| 1778075160 | 27.78° C | 70% | 1014 hPa | - | - | - | - |
| 1778074259 | 27.22° C | 71% | 1015 hPa | - | - | - | - |
* Rain since midnight (hover to see other rain measurements)
** Current wind speed in m/s (hover to see current wind gust speed)